Terminal Aerodrome Forecast
Issued by NWS

Home | Current Version | Previous Version | Text Only | Print | Product List | Glossary On
Versions: 1 2 3 4 5 6 7 8 9 10 11 12 13 14 15 16 17 18 19
201
FTUS42 TJSJ 291725
TAFJPS
TAF
TJPS 291725Z 2918/3018 VRB05KT P6SM VCTS SCT025CB SCT050
      TEMPO 2918/2920 TSRA SCT025CB BKN040 BKN060
     FM292330 10007KT P6SM FEW030 SCT060
     FM301500 15010KT P6SM VCSH SCT025 BKN060
      AMD NOT SKED TIL 300300=

USA.gov is the U.S. government's official web portal to all federal, state and local government web resources and services.